sensor_id;sensor_type;location;lat;lon;timestamp;temperature;humidity
5846;DHT22;2949;50.778;7.094;2022-09-21T00:00:03;7.70;99.90
5846;DHT22;2949;50.778;7.094;2022-09-21T00:02:29;7.60;99.90
5846;DHT22;2949;50.778;7.094;2022-09-21T00:04:54;7.60;99.90
5846;DHT22;2949;50.778;7.094;2022-09-21T00:07:19;7.60;99.90
5846;DHT22;2949;50.778;7.094;2022-09-21T00:09:45;7.50;99.90
5846;DHT22;2949;50.778;7.094;2022-09-21T00:12:11;7.50;99.90
5846;DHT22;2949;50.778;7.094;2022-09-21T00:14:37;7.50;99.90
5846;DHT22;2949;50.778;7.094;2022-09-21T00:17:02;7.50;99.90
5846;DHT22;2949;50.778;7.094;2022-09-21T00:19:28;7.50;99.90
5846;DHT22;2949;50.778;7.094;2022-09-21T00:21:54;7.50;99.90
5846;DHT22;2949;50.778;7.094;2022-09-21T00:24:20;7.50;99.90
5846;DHT22;2949;50.778;7.094;2022-09-21T00:26:45;7.50;99.90
5846;DHT22;2949;50.778;7.094;2022-09-21T00:29:11;7.40;99.90
5846;DHT22;2949;50.778;7.094;2022-09-21T00:31:38;7.40;99.90
5846;DHT22;2949;50.778;7.094;2022-09-21T00:34:04;7.40;99.90
5846;DHT22;2949;50.778;7.094;2022-09-21T00:36:32;7.30;99.90
5846;DHT22;2949;50.778;7.094;2022-09-21T00:38:59;7.20;99.90
5846;DHT22;2949;50.778;7.094;2022-09-21T00:41:27;7.20;99.90
5846;DHT22;2949;50.778;7.094;2022-09-21T00:46:45;7.10;99.90
5846;DHT22;2949;50.778;7.094;2022-09-21T00:49:11;7.10;99.90
5846;DHT22;2949;50.778;7.094;2022-09-21T00:51:37;7.10;99.90
5846;DHT22;2949;50.778;7.094;2022-09-21T00:54:13;7.10;99.90
5846;DHT22;2949;50.778;7.094;2022-09-21T00:56:42;7.00;99.90
5846;DHT22;2949;50.778;7.094;2022-09-21T00:59:10;7.10;99.90
5846;DHT22;2949;50.778;7.094;2022-09-21T01:01:38;7.10;99.90
5846;DHT22;2949;50.778;7.094;2022-09-21T01:04:04;7.10;99.90
5846;DHT22;2949;50.778;7.094;2022-09-21T01:06:31;7.10;99.90
5846;DHT22;2949;50.778;7.094;2022-09-21T01:08:58;7.10;99.90
5846;DHT22;2949;50.778;7.094;2022-09-21T01:11:38;7.10;99.90
5846;DHT22;2949;50.778;7.094;2022-09-21T01:17:10;7.10;99.90
5846;DHT22;2949;50.778;7.094;2022-09-21T01:22:45;7.20;99.90
5846;DHT22;2949;50.778;7.094;2022-09-21T01:25:37;7.20;99.90
5846;DHT22;2949;50.778;7.094;2022-09-21T01:28:26;7.20;99.90
5846;DHT22;2949;50.778;7.094;2022-09-21T01:31:00;7.20;99.90
5846;DHT22;2949;50.778;7.094;2022-09-21T01:33:38;7.20;99.90
5846;DHT22;2949;50.778;7.094;2022-09-21T01:36:10;7.20;99.90
5846;DHT22;2949;50.778;7.094;2022-09-21T01:38:43;7.10;99.90
5846;DHT22;2949;50.778;7.094;2022-09-21T01:41:12;7.10;99.90
5846;DHT22;2949;50.778;7.094;2022-09-21T01:43:46;7.10;99.90
5846;DHT22;2949;50.778;7.094;2022-09-21T01:46:19;7.10;99.90
5846;DHT22;2949;50.778;7.094;2022-09-21T01:48:50;7.10;99.90
5846;DHT22;2949;50.778;7.094;2022-09-21T01:51:19;7.10;99.90
5846;DHT22;2949;50.778;7.094;2022-09-21T01:53:53;7.00;99.90
5846;DHT22;2949;50.778;7.094;2022-09-21T01:56:24;7.00;99.90
5846;DHT22;2949;50.778;7.094;2022-09-21T01:59:06;6.90;99.90
5846;DHT22;2949;50.778;7.094;2022-09-21T02:01:38;6.90;99.90
5846;DHT22;2949;50.778;7.094;2022-09-21T02:04:09;6.90;99.90
5846;DHT22;2949;50.778;7.094;2022-09-21T02:06:39;6.90;99.90
5846;DHT22;2949;50.778;7.094;2022-09-21T02:09:05;6.80;99.90
5846;DHT22;2949;50.778;7.094;2022-09-21T02:11:31;6.80;99.90
5846;DHT22;2949;50.778;7.094;2022-09-21T02:13:56;6.80;99.90
5846;DHT22;2949;50.778;7.094;2022-09-21T02:19:13;6.70;99.90
5846;DHT22;2949;50.778;7.094;2022-09-21T02:24:22;6.60;99.90
5846;DHT22;2949;50.778;7.094;2022-09-21T02:26:54;6.60;99.90
5846;DHT22;2949;50.778;7.094;2022-09-21T02:34:56;6.50;99.90
5846;DHT22;2949;50.778;7.094;2022-09-21T02:37:36;6.50;99.90
5846;DHT22;2949;50.778;7.094;2022-09-21T02:43:29;6.40;99.90
5846;DHT22;2949;50.778;7.094;2022-09-21T02:46:00;6.40;99.90
5846;DHT22;2949;50.778;7.094;2022-09-21T02:48:41;6.40;99.90
5846;DHT22;2949;50.778;7.094;2022-09-21T02:51:10;6.40;99.90
5846;DHT22;2949;50.778;7.094;2022-09-21T02:53:39;6.40;99.90
5846;DHT22;2949;50.778;7.094;2022-09-21T02:56:07;6.30;99.90
5846;DHT22;2949;50.778;7.094;2022-09-21T02:58:36;6.30;99.90
5846;DHT22;2949;50.778;7.094;2022-09-21T03:01:04;6.20;99.90
5846;DHT22;2949;50.778;7.094;2022-09-21T03:03:33;6.20;99.90
5846;DHT22;2949;50.778;7.094;2022-09-21T03:05:59;6.20;99.90
5846;DHT22;2949;50.778;7.094;2022-09-21T03:08:24;6.20;99.90
5846;DHT22;2949;50.778;7.094;2022-09-21T03:10:50;6.20;99.90
5846;DHT22;2949;50.778;7.094;2022-09-21T03:13:16;6.20;99.90
5846;DHT22;2949;50.778;7.094;2022-09-21T03:15:43;6.20;99.90
5846;DHT22;2949;50.778;7.094;2022-09-21T03:18:10;6.20;99.90
5846;DHT22;2949;50.778;7.094;2022-09-21T03:20:42;6.30;99.90
5846;DHT22;2949;50.778;7.094;2022-09-21T03:23:10;6.30;99.90
5846;DHT22;2949;50.778;7.094;2022-09-21T03:25:36;6.40;99.90
5846;DHT22;2949;50.778;7.094;2022-09-21T03:28:02;6.50;99.90
5846;DHT22;2949;50.778;7.094;2022-09-21T03:30:27;6.60;99.90
5846;DHT22;2949;50.778;7.094;2022-09-21T03:32:54;6.70;99.90
5846;DHT22;2949;50.778;7.094;2022-09-21T03:35:21;6.80;99.90
5846;DHT22;2949;50.778;7.094;2022-09-21T03:37:48;6.80;99.90
5846;DHT22;2949;50.778;7.094;2022-09-21T03:40:15;6.90;99.90
5846;DHT22;2949;50.778;7.094;2022-09-21T03:42:42;6.90;99.90
5846;DHT22;2949;50.778;7.094;2022-09-21T03:45:09;6.90;99.90
5846;DHT22;2949;50.778;7.094;2022-09-21T03:47:35;6.90;99.90
5846;DHT22;2949;50.778;7.094;2022-09-21T03:50:01;6.90;99.90
5846;DHT22;2949;50.778;7.094;2022-09-21T03:52:27;6.90;99.90
5846;DHT22;2949;50.778;7.094;2022-09-21T03:54:52;6.90;99.90
5846;DHT22;2949;50.778;7.094;2022-09-21T03:57:19;6.90;99.90
5846;DHT22;2949;50.778;7.094;2022-09-21T03:59:44;6.90;99.90
5846;DHT22;2949;50.778;7.094;2022-09-21T04:02:10;6.90;99.90
5846;DHT22;2949;50.778;7.094;2022-09-21T04:04:35;6.80;99.90
5846;DHT22;2949;50.778;7.094;2022-09-21T04:07:01;6.80;99.90
5846;DHT22;2949;50.778;7.094;2022-09-21T04:09:27;6.80;99.90
5846;DHT22;2949;50.778;7.094;2022-09-21T04:11:53;6.80;99.90
5846;DHT22;2949;50.778;7.094;2022-09-21T04:14:19;6.80;99.90
5846;DHT22;2949;50.778;7.094;2022-09-21T04:16:45;6.80;99.90
5846;DHT22;2949;50.778;7.094;2022-09-21T04:19:11;6.80;99.90
5846;DHT22;2949;50.778;7.094;2022-09-21T04:21:36;6.80;99.90
5846;DHT22;2949;50.778;7.094;2022-09-21T04:24:02;6.70;99.90
5846;DHT22;2949;50.778;7.094;2022-09-21T04:26:32;6.70;99.90
5846;DHT22;2949;50.778;7.094;2022-09-21T04:28:59;6.60;99.90
5846;DHT22;2949;50.778;7.094;2022-09-21T04:31:25;6.60;99.90
5846;DHT22;2949;50.778;7.094;2022-09-21T04:33:53;6.50;99.90
5846;DHT22;2949;50.778;7.094;2022-09-21T04:36:20;6.50;99.90
5846;DHT22;2949;50.778;7.094;2022-09-21T04:38:46;6.50;99.90
5846;DHT22;2949;50.778;7.094;2022-09-21T04:41:12;6.40;99.90
5846;DHT22;2949;50.778;7.094;2022-09-21T04:43:40;6.40;99.90
5846;DHT22;2949;50.778;7.094;2022-09-21T04:46:11;6.30;99.90
5846;DHT22;2949;50.778;7.094;2022-09-21T04:48:38;6.20;99.90
5846;DHT22;2949;50.778;7.094;2022-09-21T04:51:04;6.10;99.90
5846;DHT22;2949;50.778;7.094;2022-09-21T04:53:32;6.10;99.90
5846;DHT22;2949;50.778;7.094;2022-09-21T04:55:58;6.10;99.90
5846;DHT22;2949;50.778;7.094;2022-09-21T04:58:23;6.10;99.90
5846;DHT22;2949;50.778;7.094;2022-09-21T05:00:50;6.00;99.90
5846;DHT22;2949;50.778;7.094;2022-09-21T05:03:16;6.00;99.90
5846;DHT22;2949;50.778;7.094;2022-09-21T05:05:55;6.10;99.90
5846;DHT22;2949;50.778;7.094;2022-09-21T05:08:22;6.10;99.90
5846;DHT22;2949;50.778;7.094;2022-09-21T05:11:10;6.10;99.90
5846;DHT22;2949;50.778;7.094;2022-09-21T05:13:37;6.10;99.90
5846;DHT22;2949;50.778;7.094;2022-09-21T05:16:03;6.10;99.90
5846;DHT22;2949;50.778;7.094;2022-09-21T05:18:29;6.20;99.90
5846;DHT22;2949;50.778;7.094;2022-09-21T05:20:56;6.20;99.90
5846;DHT22;2949;50.778;7.094;2022-09-21T05:23:22;6.20;99.90
5846;DHT22;2949;50.778;7.094;2022-09-21T05:25:48;6.30;99.90
5846;DHT22;2949;50.778;7.094;2022-09-21T05:28:17;6.40;99.90
5846;DHT22;2949;50.778;7.094;2022-09-21T05:30:45;6.40;99.90
5846;DHT22;2949;50.778;7.094;2022-09-21T05:33:15;6.50;99.90
5846;DHT22;2949;50.778;7.094;2022-09-21T05:38:33;6.70;99.90
5846;DHT22;2949;50.778;7.094;2022-09-21T05:41:00;6.70;99.90
5846;DHT22;2949;50.778;7.094;2022-09-21T05:43:25;6.70;99.90
5846;DHT22;2949;50.778;7.094;2022-09-21T05:46:01;6.80;99.90
5846;DHT22;2949;50.778;7.094;2022-09-21T05:48:35;6.80;99.90
5846;DHT22;2949;50.778;7.094;2022-09-21T05:51:32;6.80;99.90
5846;DHT22;2949;50.778;7.094;2022-09-21T05:56:41;6.90;99.90
5846;DHT22;2949;50.778;7.094;2022-09-21T06:04:43;7.10;99.90
5846;DHT22;2949;50.778;7.094;2022-09-21T06:07:09;7.10;99.90
5846;DHT22;2949;50.778;7.094;2022-09-21T06:09:34;7.20;99.90
5846;DHT22;2949;50.778;7.094;2022-09-21T06:12:00;7.30;99.90
5846;DHT22;2949;50.778;7.094;2022-09-21T06:14:25;7.40;99.90
5846;DHT22;2949;50.778;7.094;2022-09-21T06:16:52;7.50;99.90
5846;DHT22;2949;50.778;7.094;2022-09-21T06:19:17;7.50;99.90
5846;DHT22;2949;50.778;7.094;2022-09-21T06:21:43;7.60;99.90
5846;DHT22;2949;50.778;7.094;2022-09-21T06:24:09;7.60;99.90
5846;DHT22;2949;50.778;7.094;2022-09-21T06:26:35;7.70;99.90
5846;DHT22;2949;50.778;7.094;2022-09-21T06:29:00;7.70;99.90
5846;DHT22;2949;50.778;7.094;2022-09-21T06:31:26;7.70;99.90
5846;DHT22;2949;50.778;7.094;2022-09-21T06:33:52;7.70;99.90
5846;DHT22;2949;50.778;7.094;2022-09-21T06:36:18;7.80;99.90
5846;DHT22;2949;50.778;7.094;2022-09-21T06:38:43;8.00;99.90
5846;DHT22;2949;50.778;7.094;2022-09-21T06:41:09;8.10;99.90
5846;DHT22;2949;50.778;7.094;2022-09-21T06:43:34;8.20;99.90
5846;DHT22;2949;50.778;7.094;2022-09-21T06:46:01;8.20;99.90
5846;DHT22;2949;50.778;7.094;2022-09-21T06:48:28;8.10;99.90
5846;DHT22;2949;50.778;7.094;2022-09-21T06:50:58;8.20;99.90
5846;DHT22;2949;50.778;7.094;2022-09-21T06:53:24;8.20;99.90
5846;DHT22;2949;50.778;7.094;2022-09-21T06:55:50;8.30;99.90
5846;DHT22;2949;50.778;7.094;2022-09-21T06:58:16;8.40;99.90
5846;DHT22;2949;50.778;7.094;2022-09-21T07:00:42;8.50;99.90
5846;DHT22;2949;50.778;7.094;2022-09-21T07:03:11;8.60;99.90
5846;DHT22;2949;50.778;7.094;2022-09-21T07:05:43;8.70;99.90
5846;DHT22;2949;50.778;7.094;2022-09-21T07:08:09;9.00;99.90
5846;DHT22;2949;50.778;7.094;2022-09-21T07:10:34;9.00;99.90
5846;DHT22;2949;50.778;7.094;2022-09-21T07:13:04;9.00;99.90
5846;DHT22;2949;50.778;7.094;2022-09-21T07:15:31;9.20;99.90
5846;DHT22;2949;50.778;7.094;2022-09-21T07:17:56;9.20;99.90
5846;DHT22;2949;50.778;7.094;2022-09-21T07:20:22;9.10;99.90
5846;DHT22;2949;50.778;7.094;2022-09-21T07:22:48;9.10;99.90
5846;DHT22;2949;50.778;7.094;2022-09-21T07:25:13;9.10;99.90
5846;DHT22;2949;50.778;7.094;2022-09-21T07:27:39;9.30;99.90
5846;DHT22;2949;50.778;7.094;2022-09-21T07:30:06;9.40;99.90
5846;DHT22;2949;50.778;7.094;2022-09-21T07:32:32;9.50;99.90
5846;DHT22;2949;50.778;7.094;2022-09-21T07:34:57;9.60;99.90
5846;DHT22;2949;50.778;7.094;2022-09-21T07:37:24;9.60;99.90
5846;DHT22;2949;50.778;7.094;2022-09-21T07:39:50;9.60;99.90
5846;DHT22;2949;50.778;7.094;2022-09-21T07:42:17;9.70;99.90
5846;DHT22;2949;50.778;7.094;2022-09-21T07:44:45;9.90;99.90
5846;DHT22;2949;50.778;7.094;2022-09-21T07:47:11;10.00;99.90
5846;DHT22;2949;50.778;7.094;2022-09-21T07:49:38;10.00;99.90
5846;DHT22;2949;50.778;7.094;2022-09-21T07:52:03;10.00;99.90
5846;DHT22;2949;50.778;7.094;2022-09-21T07:54:29;10.00;99.90
5846;DHT22;2949;50.778;7.094;2022-09-21T07:56:56;10.00;99.90
5846;DHT22;2949;50.778;7.094;2022-09-21T07:59:40;10.30;99.90
5846;DHT22;2949;50.778;7.094;2022-09-21T08:02:05;10.50;99.90
5846;DHT22;2949;50.778;7.094;2022-09-21T08:04:31;10.70;99.90
5846;DHT22;2949;50.778;7.094;2022-09-21T08:06:56;10.70;99.90
5846;DHT22;2949;50.778;7.094;2022-09-21T08:09:22;10.70;99.90
5846;DHT22;2949;50.778;7.094;2022-09-21T08:11:47;10.90;99.90
5846;DHT22;2949;50.778;7.094;2022-09-21T08:14:13;10.70;99.90
5846;DHT22;2949;50.778;7.094;2022-09-21T08:16:44;10.90;99.90
5846;DHT22;2949;50.778;7.094;2022-09-21T08:19:10;11.10;99.90
5846;DHT22;2949;50.778;7.094;2022-09-21T08:21:36;11.20;99.90
5846;DHT22;2949;50.778;7.094;2022-09-21T08:24:01;11.30;99.90
5846;DHT22;2949;50.778;7.094;2022-09-21T08:26:27;11.30;99.90
5846;DHT22;2949;50.778;7.094;2022-09-21T08:28:53;11.40;99.90
5846;DHT22;2949;50.778;7.094;2022-09-21T08:31:21;11.90;99.90
5846;DHT22;2949;50.778;7.094;2022-09-21T08:33:48;12.30;99.90
5846;DHT22;2949;50.778;7.094;2022-09-21T08:36:14;12.60;99.90
5846;DHT22;2949;50.778;7.094;2022-09-21T08:38:40;13.20;99.90
5846;DHT22;2949;50.778;7.094;2022-09-21T08:41:34;14.10;99.90
5846;DHT22;2949;50.778;7.094;2022-09-21T08:44:14;14.90;99.90
5846;DHT22;2949;50.778;7.094;2022-09-21T08:46:43;15.70;99.90
5846;DHT22;2949;50.778;7.094;2022-09-21T08:49:20;16.20;99.90
5846;DHT22;2949;50.778;7.094;2022-09-21T08:51:57;17.90;99.90
5846;DHT22;2949;50.778;7.094;2022-09-21T08:56:53;18.00;99.90
5846;DHT22;2949;50.778;7.094;2022-09-21T08:59:18;17.20;99.90
5846;DHT22;2949;50.778;7.094;2022-09-21T09:02:15;17.50;99.90
5846;DHT22;2949;50.778;7.094;2022-09-21T09:07:49;21.20;99.90
5846;DHT22;2949;50.778;7.094;2022-09-21T09:10:36;22.50;99.90
5846;DHT22;2949;50.778;7.094;2022-09-21T09:21:25;25.80;92.10
5846;DHT22;2949;50.778;7.094;2022-09-21T09:24:01;25.70;89.50
5846;DHT22;2949;50.778;7.094;2022-09-21T09:26:54;24.90;90.40
5846;DHT22;2949;50.778;7.094;2022-09-21T09:29:44;25.30;86.90
5846;DHT22;2949;50.778;7.094;2022-09-21T09:32:13;25.60;85.10
5846;DHT22;2949;50.778;7.094;2022-09-21T09:34:42;25.80;85.40
5846;DHT22;2949;50.778;7.094;2022-09-21T09:37:11;26.20;81.80
5846;DHT22;2949;50.778;7.094;2022-09-21T09:39:38;26.50;83.00
5846;DHT22;2949;50.778;7.094;2022-09-21T09:50:37;26.80;76.40
5846;DHT22;2949;50.778;7.094;2022-09-21T09:53:09;26.90;74.40
5846;DHT22;2949;50.778;7.094;2022-09-21T09:55:38;27.10;74.00
5846;DHT22;2949;50.778;7.094;2022-09-21T09:58:11;27.30;68.50
5846;DHT22;2949;50.778;7.094;2022-09-21T10:00:40;26.80;71.00
5846;DHT22;2949;50.778;7.094;2022-09-21T10:03:15;26.90;69.10
5846;DHT22;2949;50.778;7.094;2022-09-21T10:05:41;27.00;70.00
5846;DHT22;2949;50.778;7.094;2022-09-21T10:11:12;27.50;65.60
5846;DHT22;2949;50.778;7.094;2022-09-21T10:13:46;27.10;67.00
5846;DHT22;2949;50.778;7.094;2022-09-21T10:18:50;27.00;65.30
5846;DHT22;2949;50.778;7.094;2022-09-21T10:21:23;27.10;63.90
5846;DHT22;2949;50.778;7.094;2022-09-21T10:23:59;26.70;62.90
5846;DHT22;2949;50.778;7.094;2022-09-21T10:26:33;26.70;61.30
5846;DHT22;2949;50.778;7.094;2022-09-21T10:29:15;26.70;61.90
5846;DHT22;2949;50.778;7.094;2022-09-21T10:31:56;26.30;62.70
5846;DHT22;2949;50.778;7.094;2022-09-21T10:34:24;26.40;60.90
5846;DHT22;2949;50.778;7.094;2022-09-21T10:36:52;26.90;57.00
5846;DHT22;2949;50.778;7.094;2022-09-21T10:39:25;26.50;57.20
5846;DHT22;2949;50.778;7.094;2022-09-21T10:42:11;25.30;60.80
5846;DHT22;2949;50.778;7.094;2022-09-21T10:44:43;25.00;64.50
5846;DHT22;2949;50.778;7.094;2022-09-21T10:47:21;25.60;60.80
5846;DHT22;2949;50.778;7.094;2022-09-21T10:49:56;25.90;60.50
5846;DHT22;2949;50.778;7.094;2022-09-21T10:52:30;26.00;58.70
5846;DHT22;2949;50.778;7.094;2022-09-21T10:54:57;25.80;60.40
5846;DHT22;2949;50.778;7.094;2022-09-21T10:57:24;25.60;61.30
5846;DHT22;2949;50.778;7.094;2022-09-21T10:59:50;24.70;62.80
5846;DHT22;2949;50.778;7.094;2022-09-21T11:02:26;23.70;62.80
5846;DHT22;2949;50.778;7.094;2022-09-21T11:05:03;22.40;70.70
5846;DHT22;2949;50.778;7.094;2022-09-21T11:07:38;21.60;71.60
5846;DHT22;2949;50.778;7.094;2022-09-21T11:10:15;20.80;72.50
5846;DHT22;2949;50.778;7.094;2022-09-21T11:15:32;19.60;76.40
5846;DHT22;2949;50.778;7.094;2022-09-21T11:18:21;19.30;78.50
5846;DHT22;2949;50.778;7.094;2022-09-21T11:20:52;19.00;86.30
5846;DHT22;2949;50.778;7.094;2022-09-21T11:26:02;18.70;86.70
5846;DHT22;2949;50.778;7.094;2022-09-21T11:36:52;18.50;83.80
5846;DHT22;2949;50.778;7.094;2022-09-21T11:42:07;18.60;84.90
5846;DHT22;2949;50.778;7.094;2022-09-21T11:44:51;18.70;82.30
5846;DHT22;2949;50.778;7.094;2022-09-21T11:57:58;18.50;84.40
5846;DHT22;2949;50.778;7.094;2022-09-21T12:00:30;18.30;87.40
5846;DHT22;2949;50.778;7.094;2022-09-21T12:08:31;18.60;84.90
5846;DHT22;2949;50.778;7.094;2022-09-21T12:22:36;18.70;77.70
5846;DHT22;2949;50.778;7.094;2022-09-21T12:27:57;18.30;78.50
5846;DHT22;2949;50.778;7.094;2022-09-21T12:30:24;18.10;79.20
5846;DHT22;2949;50.778;7.094;2022-09-21T12:35:43;18.10;78.20
5846;DHT22;2949;50.778;7.094;2022-09-21T12:38:22;18.10;79.50
5846;DHT22;2949;50.778;7.094;2022-09-21T12:44:02;18.20;71.30
5846;DHT22;2949;50.778;7.094;2022-09-21T12:46:36;18.20;70.30
5846;DHT22;2949;50.778;7.094;2022-09-21T12:49:11;18.20;70.60
5846;DHT22;2949;50.778;7.094;2022-09-21T12:51:43;18.20;70.90
5846;DHT22;2949;50.778;7.094;2022-09-21T12:54:34;18.10;71.30
5846;DHT22;2949;50.778;7.094;2022-09-21T13:00:07;18.20;70.00
5846;DHT22;2949;50.778;7.094;2022-09-21T13:02:47;18.30;70.60
5846;DHT22;2949;50.778;7.094;2022-09-21T13:07:58;18.10;68.60
5846;DHT22;2949;50.778;7.094;2022-09-21T13:12:56;18.20;68.10
5846;DHT22;2949;50.778;7.094;2022-09-21T13:15:32;18.10;68.60
5846;DHT22;2949;50.778;7.094;2022-09-21T13:18:22;18.20;67.10
5846;DHT22;2949;50.778;7.094;2022-09-21T13:20:49;18.30;69.80
5846;DHT22;2949;50.778;7.094;2022-09-21T13:23:36;18.30;67.80
5846;DHT22;2949;50.778;7.094;2022-09-21T13:26:11;18.30;69.90
5846;DHT22;2949;50.778;7.094;2022-09-21T13:36:40;18.30;66.70
5846;DHT22;2949;50.778;7.094;2022-09-21T13:39:15;18.30;68.60
5846;DHT22;2949;50.778;7.094;2022-09-21T13:41:41;18.40;67.00
5846;DHT22;2949;50.778;7.094;2022-09-21T13:44:20;18.40;66.80
5846;DHT22;2949;50.778;7.094;2022-09-21T13:46:56;18.30;64.00
5846;DHT22;2949;50.778;7.094;2022-09-21T13:49:32;18.40;67.10
5846;DHT22;2949;50.778;7.094;2022-09-21T13:52:24;18.40;67.00
5846;DHT22;2949;50.778;7.094;2022-09-21T13:55:02;18.40;64.50
5846;DHT22;2949;50.778;7.094;2022-09-21T13:57:38;18.50;65.20
5846;DHT22;2949;50.778;7.094;2022-09-21T14:02:57;18.70;66.20
5846;DHT22;2949;50.778;7.094;2022-09-21T14:05:46;18.70;64.80
5846;DHT22;2949;50.778;7.094;2022-09-21T14:10:44;18.70;63.20
5846;DHT22;2949;50.778;7.094;2022-09-21T14:13:36;18.60;62.30
5846;DHT22;2949;50.778;7.094;2022-09-21T14:19:02;18.60;61.30
5846;DHT22;2949;50.778;7.094;2022-09-21T14:21:28;18.50;61.30
5846;DHT22;2949;50.778;7.094;2022-09-21T14:24:07;18.50;63.60
5846;DHT22;2949;50.778;7.094;2022-09-21T14:29:26;18.60;63.00
5846;DHT22;2949;50.778;7.094;2022-09-21T14:31:58;18.60;61.60
5846;DHT22;2949;50.778;7.094;2022-09-21T14:34:29;18.60;61.40
5846;DHT22;2949;50.778;7.094;2022-09-21T14:36:57;18.70;60.90
5846;DHT22;2949;50.778;7.094;2022-09-21T14:39:44;18.70;59.80
5846;DHT22;2949;50.778;7.094;2022-09-21T14:42:16;18.70;57.80
5846;DHT22;2949;50.778;7.094;2022-09-21T14:44:43;18.60;58.00
5846;DHT22;2949;50.778;7.094;2022-09-21T14:47:43;18.60;57.50
5846;DHT22;2949;50.778;7.094;2022-09-21T14:56:13;18.70;57.80
5846;DHT22;2949;50.778;7.094;2022-09-21T15:02:02;18.60;56.50
5846;DHT22;2949;50.778;7.094;2022-09-21T15:05:03;18.60;56.70
5846;DHT22;2949;50.778;7.094;2022-09-21T15:13:50;18.50;57.60
5846;DHT22;2949;50.778;7.094;2022-09-21T15:16:24;18.50;58.60
5846;DHT22;2949;50.778;7.094;2022-09-21T15:19:43;18.50;56.60
5846;DHT22;2949;50.778;7.094;2022-09-21T15:24:29;18.40;59.10
5846;DHT22;2949;50.778;7.094;2022-09-21T15:27:13;18.40;61.10
5846;DHT22;2949;50.778;7.094;2022-09-21T15:29:42;18.50;61.00
5846;DHT22;2949;50.778;7.094;2022-09-21T15:35:14;18.60;59.50
5846;DHT22;2949;50.778;7.094;2022-09-21T15:37:40;18.60;58.60
5846;DHT22;2949;50.778;7.094;2022-09-21T15:40:24;18.60;58.10
5846;DHT22;2949;50.778;7.094;2022-09-21T15:42:59;18.50;59.00
5846;DHT22;2949;50.778;7.094;2022-09-21T15:45:27;18.40;57.50
5846;DHT22;2949;50.778;7.094;2022-09-21T15:47:53;18.30;58.30
5846;DHT22;2949;50.778;7.094;2022-09-21T15:50:19;18.30;59.80
5846;DHT22;2949;50.778;7.094;2022-09-21T15:52:57;18.30;61.20
5846;DHT22;2949;50.778;7.094;2022-09-21T15:55:24;18.30;61.70
5846;DHT22;2949;50.778;7.094;2022-09-21T15:57:54;18.30;62.60
5846;DHT22;2949;50.778;7.094;2022-09-21T16:00:33;18.30;62.60
5846;DHT22;2949;50.778;7.094;2022-09-21T16:03:20;18.10;64.00
5846;DHT22;2949;50.778;7.094;2022-09-21T16:05:48;18.00;64.20
5846;DHT22;2949;50.778;7.094;2022-09-21T16:08:31;18.00;63.90
5846;DHT22;2949;50.778;7.094;2022-09-21T16:13:46;17.90;66.60
5846;DHT22;2949;50.778;7.094;2022-09-21T16:16:30;17.70;67.70
5846;DHT22;2949;50.778;7.094;2022-09-21T16:18:57;17.70;69.30
5846;DHT22;2949;50.778;7.094;2022-09-21T16:21:33;17.60;69.60
5846;DHT22;2949;50.778;7.094;2022-09-21T16:24:28;17.60;69.10
5846;DHT22;2949;50.778;7.094;2022-09-21T16:27:01;17.50;70.40
5846;DHT22;2949;50.778;7.094;2022-09-21T16:29:37;17.50;70.30
5846;DHT22;2949;50.778;7.094;2022-09-21T16:34:47;17.30;72.00
5846;DHT22;2949;50.778;7.094;2022-09-21T16:39:59;17.00;73.90
5846;DHT22;2949;50.778;7.094;2022-09-21T16:42:27;16.80;75.80
5846;DHT22;2949;50.778;7.094;2022-09-21T16:44:58;16.60;76.50
5846;DHT22;2949;50.778;7.094;2022-09-21T16:47:27;16.50;75.90
5846;DHT22;2949;50.778;7.094;2022-09-21T16:49:54;16.40;75.40
5846;DHT22;2949;50.778;7.094;2022-09-21T16:52:25;16.30;76.20
5846;DHT22;2949;50.778;7.094;2022-09-21T16:54:53;16.20;76.10
5846;DHT22;2949;50.778;7.094;2022-09-21T16:57:21;16.10;79.10
5846;DHT22;2949;50.778;7.094;2022-09-21T16:59:47;15.90;82.20
5846;DHT22;2949;50.778;7.094;2022-09-21T17:02:15;15.80;84.60
5846;DHT22;2949;50.778;7.094;2022-09-21T17:04:40;15.60;86.70
5846;DHT22;2949;50.778;7.094;2022-09-21T17:07:06;15.40;88.50
5846;DHT22;2949;50.778;7.094;2022-09-21T17:09:40;15.30;90.00
5846;DHT22;2949;50.778;7.094;2022-09-21T17:12:11;15.10;90.80
5846;DHT22;2949;50.778;7.094;2022-09-21T17:14:37;15.00;91.50
5846;DHT22;2949;50.778;7.094;2022-09-21T17:17:16;14.80;92.50
5846;DHT22;2949;50.778;7.094;2022-09-21T17:19:42;14.70;93.80
5846;DHT22;2949;50.778;7.094;2022-09-21T17:22:09;14.50;94.50
5846;DHT22;2949;50.778;7.094;2022-09-21T17:24:48;14.30;95.50
5846;DHT22;2949;50.778;7.094;2022-09-21T17:27:15;14.20;96.30
5846;DHT22;2949;50.778;7.094;2022-09-21T17:29:44;14.00;97.10
5846;DHT22;2949;50.778;7.094;2022-09-21T17:32:18;13.90;99.00
5846;DHT22;2949;50.778;7.094;2022-09-21T17:34:45;13.70;99.90
5846;DHT22;2949;50.778;7.094;2022-09-21T17:37:11;13.60;99.90
5846;DHT22;2949;50.778;7.094;2022-09-21T17:39:37;13.50;99.90
5846;DHT22;2949;50.778;7.094;2022-09-21T17:42:23;13.30;99.90
5846;DHT22;2949;50.778;7.094;2022-09-21T17:45:02;13.20;99.90
5846;DHT22;2949;50.778;7.094;2022-09-21T17:47:31;13.10;99.90
5846;DHT22;2949;50.778;7.094;2022-09-21T17:52:33;12.80;99.90
5846;DHT22;2949;50.778;7.094;2022-09-21T17:55:17;12.70;99.90
5846;DHT22;2949;50.778;7.094;2022-09-21T17:58:17;12.60;99.90
5846;DHT22;2949;50.778;7.094;2022-09-21T18:01:00;12.50;99.90
5846;DHT22;2949;50.778;7.094;2022-09-21T18:03:31;12.30;99.90
5846;DHT22;2949;50.778;7.094;2022-09-21T18:06:00;12.20;99.90
5846;DHT22;2949;50.778;7.094;2022-09-21T18:08:31;12.10;99.90
5846;DHT22;2949;50.778;7.094;2022-09-21T18:11:11;12.10;99.90
5846;DHT22;2949;50.778;7.094;2022-09-21T18:17:21;11.90;99.90
5846;DHT22;2949;50.778;7.094;2022-09-21T18:20:12;11.80;99.90
5846;DHT22;2949;50.778;7.094;2022-09-21T18:25:37;11.60;99.90
5846;DHT22;2949;50.778;7.094;2022-09-21T18:28:33;11.60;99.90
5846;DHT22;2949;50.778;7.094;2022-09-21T18:34:34;11.40;99.90
5846;DHT22;2949;50.778;7.094;2022-09-21T18:37:17;11.30;99.90
5846;DHT22;2949;50.778;7.094;2022-09-21T18:39:56;11.20;99.90
5846;DHT22;2949;50.778;7.094;2022-09-21T18:42:40;11.10;99.90
5846;DHT22;2949;50.778;7.094;2022-09-21T18:45:21;11.00;99.90
5846;DHT22;2949;50.778;7.094;2022-09-21T18:50:56;10.90;99.90
5846;DHT22;2949;50.778;7.094;2022-09-21T18:53:43;10.90;99.90
5846;DHT22;2949;50.778;7.094;2022-09-21T18:56:11;10.90;99.90
5846;DHT22;2949;50.778;7.094;2022-09-21T18:58:37;10.90;99.90
5846;DHT22;2949;50.778;7.094;2022-09-21T19:01:04;10.90;99.90
5846;DHT22;2949;50.778;7.094;2022-09-21T19:03:30;10.80;99.90
5846;DHT22;2949;50.778;7.094;2022-09-21T19:19:58;10.40;99.90
5846;DHT22;2949;50.778;7.094;2022-09-21T19:22:47;10.30;99.90
5846;DHT22;2949;50.778;7.094;2022-09-21T19:25:26;10.20;99.90
5846;DHT22;2949;50.778;7.094;2022-09-21T19:28:00;10.20;99.90
5846;DHT22;2949;50.778;7.094;2022-09-21T19:30:26;10.20;99.90
5846;DHT22;2949;50.778;7.094;2022-09-21T19:32:54;10.20;99.90
5846;DHT22;2949;50.778;7.094;2022-09-21T19:35:29;10.10;99.90
5846;DHT22;2949;50.778;7.094;2022-09-21T19:37:57;10.00;99.90
5846;DHT22;2949;50.778;7.094;2022-09-21T19:40:33;10.00;99.90
5846;DHT22;2949;50.778;7.094;2022-09-21T19:43:15;9.90;99.90
5846;DHT22;2949;50.778;7.094;2022-09-21T19:48:17;9.70;99.90
5846;DHT22;2949;50.778;7.094;2022-09-21T19:50:52;9.70;99.90
5846;DHT22;2949;50.778;7.094;2022-09-21T19:53:24;9.70;99.90
5846;DHT22;2949;50.778;7.094;2022-09-21T19:56:12;9.70;99.90
5846;DHT22;2949;50.778;7.094;2022-09-21T19:58:56;9.70;99.90